Ashburn, Missouri
Current Conditions -  °F | °C
As of 2:15 AM on Wednesday 26 Nov 2014 (Local Time) from KPPQ Reporting Station
Clear Clear  
Wind Chill: 23°   Ceiling: Unl
Heat Index: 28°   Visibility: 10mi
Dew Point: 24°   Wind: 5mph
Humidity: 85%   Direction: 130°SE
Pressure: 30.09"   Gusts: NA
Location:  39.54°N, 91.17°W
Report Text: KPPQ 260815Z AUTO 13004KT 10SM CLR M02/M04 A3009 RMK AO2 T10201042 PWINO
Loading
Personal Weather Stations






























Interactive Weather Map New forecast layout! Learn more

10-Day Weather Forecast

Advertisements
Track Severe Weather on mobile